Time;durP1;ratioP1;P1;durP2;ratioP2;P2;SDS_P1;SDS_P2;PMS_P1;PMS_P2;Temp;Humidity;BMP_temperature;BMP_pressure;BME280_temperature;BME280_humidity;BME280_pressure;Samples;Min_cycle;Max_cycle;Signal;HPM_P1;HPM_P2
2021/04/01 00:02:56;;;;;;;9.37;8.33;;;13.90;24.70;;;;;;10405615;28;20777;-72
2021/04/01 00:07:58;;;;;;;9.60;7.93;;;13.80;25.10;;;;;;10411663;28;20305;-72
2021/04/01 00:13:00;;;;;;;8.90;7.77;;;13.70;25.00;;;;;;10414243;28;20312;-72
2021/04/01 00:18:04;;;;;;;10.17;8.10;;;13.60;25.20;;;;;;10414051;28;20226;-72
2021/04/01 00:23:06;;;;;;;15.60;8.73;;;13.60;25.60;;;;;;10416107;28;20300;-72
2021/04/01 00:28:09;;;;;;;12.53;8.57;;;13.60;25.40;;;;;;10414757;28;20218;-72
2021/04/01 00:33:12;;;;;;;9.10;7.17;;;13.50;25.30;;;;;;10412866;28;20252;-72
2021/04/01 00:38:14;;;;;;;8.77;6.67;;;13.30;25.40;;;;;;10406909;28;20656;-72
2021/04/01 00:43:16;;;;;;;8.97;7.27;;;13.20;25.50;;;;;;10415796;28;20639;-72
2021/04/01 00:48:19;;;;;;;8.67;6.83;;;13.10;25.60;;;;;;10411996;28;20608;-72
2021/04/01 00:53:22;;;;;;;8.20;7.20;;;13.10;25.90;;;;;;10410278;28;20760;-72
2021/04/01 00:58:25;;;;;;;9.07;7.17;;;13.10;25.90;;;;;;10412425;28;20302;-72
2021/04/01 01:03:29;;;;;;;7.07;6.27;;;13.10;26.00;;;;;;10411940;28;20303;-71
2021/04/01 01:08:32;;;;;;;10.40;7.93;;;13.10;26.10;;;;;;10414511;28;20740;-71
2021/04/01 01:13:34;;;;;;;11.53;8.47;;;13.00;25.90;;;;;;10407557;28;20238;-71
2021/04/01 01:18:37;;;;;;;9.17;7.90;;;13.00;26.00;;;;;;10411183;28;20224;-71
2021/04/01 01:23:41;;;;;;;9.67;8.07;;;13.00;26.20;;;;;;10408816;28;20234;-72
2021/04/01 01:28:44;;;;;;;8.53;7.33;;;13.00;26.40;;;;;;10416736;28;20224;-72
2021/04/01 01:33:46;;;;;;;10.03;8.03;;;13.00;26.20;;;;;;10408450;28;20233;-71
2021/04/01 01:38:49;;;;;;;8.50;7.47;;;12.90;26.00;;;;;;10414893;28;20232;-71
2021/04/01 01:43:53;;;;;;;8.63;7.60;;;12.90;26.00;;;;;;10408906;28;20226;-72
2021/04/01 01:48:56;;;;;;;9.13;7.27;;;12.80;26.40;;;;;;10417463;28;20222;-71
2021/04/01 01:53:58;;;;;;;8.17;7.03;;;12.80;26.30;;;;;;10409440;28;20317;-71
2021/04/01 01:59:02;;;;;;;9.17;7.23;;;12.70;26.20;;;;;;10412976;28;20732;-71
2021/04/01 02:04:05;;;;;;;9.03;7.13;;;12.70;26.40;;;;;;10405680;28;20242;-71
2021/04/01 02:09:07;;;;;;;9.73;7.57;;;12.70;26.40;;;;;;10414627;28;20757;-72
2021/04/01 02:14:10;;;;;;;9.10;8.20;;;12.60;26.40;;;;;;10407906;28;20233;-71
2021/04/01 02:19:12;;;;;;;11.63;8.40;;;12.60;26.60;;;;;;10414358;28;20333;-71
2021/04/01 02:24:15;;;;;;;14.30;8.93;;;12.50;26.30;;;;;;10404759;28;20234;-71
2021/04/01 02:29:18;;;;;;;11.40;8.17;;;12.50;26.50;;;;;;10413664;28;20232;-71
2021/04/01 02:34:20;;;;;;;8.70;7.37;;;12.40;26.60;;;;;;10408738;28;20230;-71
2021/04/01 02:39:23;;;;;;;9.33;8.03;;;12.30;26.40;;;;;;10416046;28;20221;-72
2021/04/01 02:44:26;;;;;;;9.83;8.60;;;12.10;26.50;;;;;;10406334;28;20229;-71
2021/04/01 02:49:28;;;;;;;11.80;8.93;;;12.00;26.80;;;;;;10407543;28;20313;-72
2021/04/01 02:54:30;;;;;;;10.83;9.30;;;12.00;26.80;;;;;;10407553;28;20241;-72
2021/04/01 02:59:33;;;;;;;10.60;8.90;;;11.90;26.80;;;;;;10400019;28;20237;-71
2021/04/01 03:04:35;;;;;;;8.87;7.10;;;11.80;27.10;;;;;;10408629;28;20317;-71
2021/04/01 03:09:38;;;;;;;10.77;8.40;;;11.70;26.90;;;;;;10400013;28;20230;-71
2021/04/01 03:14:41;;;;;;;10.17;9.03;;;11.70;27.10;;;;;;10407144;28;20240;-71
2021/04/01 03:19:43;;;;;;;8.47;7.37;;;11.70;27.30;;;;;;10407494;28;20231;-71
2021/04/01 03:24:45;;;;;;;10.37;7.67;;;11.70;27.20;;;;;;10411435;28;20230;-71
2021/04/01 03:35:05;;;;;;;11.70;7.73;;;11.70;27.30;;;;;;10411957;28;20225;-72
2021/04/01 03:40:09;;;;;;;10.90;8.27;;;11.70;27.20;;;;;;10411890;28;20219;-71
2021/04/01 03:45:15;;;;;;;10.13;7.60;;;11.70;27.50;;;;;;10413976;28;20291;-71
2021/04/01 03:50:17;;;;;;;11.17;8.87;;;11.70;27.50;;;;;;10414762;28;20225;-71
2021/04/01 03:55:37;;;;;;;11.70;8.43;;;11.70;27.30;;;;;;10417388;28;20233;-71
2021/04/01 04:00:42;;;;;;;9.30;7.13;;;11.60;27.30;;;;;;10416423;28;20225;-71
2021/04/01 04:05:58;;;;;;;7.90;6.80;;;11.50;27.40;;;;;;10410456;28;20775;-72
2021/04/01 04:11:19;;;;;;;13.13;8.90;;;11.40;27.10;;;;;;10418422;28;20299;-71
2021/04/01 04:16:22;;;;;;;17.87;11.57;;;11.40;27.40;;;;;;10410509;28;20240;-71
2021/04/01 04:21:24;;;;;;;17.27;11.80;;;11.30;27.60;;;;;;10414906;28;20232;-71
2021/04/01 04:26:26;;;;;;;11.47;9.43;;;11.20;27.50;;;;;;10410165;28;20228;-71
2021/04/01 04:31:29;;;;;;;11.27;8.90;;;11.20;27.50;;;;;;10413185;28;20232;-71
2021/04/01 04:36:31;;;;;;;12.77;8.60;;;11.10;27.80;;;;;;10417176;28;20234;-71
2021/04/01 04:41:33;;;;;;;9.10;7.83;;;11.00;27.60;;;;;;10411745;28;20230;-71
2021/04/01 04:46:37;;;;;;;11.17;7.20;;;11.00;27.70;;;;;;10411456;28;20230;-71
2021/04/01 04:51:39;;;;;;;10.87;8.47;;;10.90;27.90;;;;;;10410992;28;20652;-71
2021/04/01 04:56:42;;;;;;;13.70;9.50;;;11.00;27.90;;;;;;10414258;28;20783;-71
2021/04/01 05:07:05;;;;;;;8.30;7.23;;;10.80;27.90;;;;;;10417803;28;20231;-71
2021/04/01 05:12:09;;;;;;;8.90;7.83;;;10.70;27.80;;;;;;10412696;28;20217;-71
2021/04/01 05:17:15;;;;;;;13.40;9.03;;;10.60;28.20;;;;;;10409832;28;20224;-71
2021/04/01 05:22:19;;;;;;;12.73;9.90;;;10.60;28.50;;;;;;10410906;28;20279;-71
2021/04/01 05:27:23;;;;;;;12.40;9.93;;;10.50;28.20;;;;;;10407110;28;20237;-71
2021/04/01 05:32:28;;;;;;;13.93;9.70;;;10.50;28.50;;;;;;10414356;28;20232;-71
2021/04/01 05:37:30;;;;;;;12.53;10.50;;;10.40;28.60;;;;;;10418064;28;20742;-71
2021/04/01 05:42:36;;;;;;;11.13;9.47;;;10.50;28.70;;;;;;10407344;28;20243;-71
2021/04/01 05:47:44;;;;;;;14.50;9.83;;;10.50;28.70;;;;;;10414970;28;20257;-71
2021/04/01 06:04:08;;;;;;;12.20;9.13;;;10.70;30.00;;;;;;10399883;28;20606;-71
2021/04/01 06:09:19;;;;;;;13.40;9.77;;;10.80;30.20;;;;;;10409488;28;20226;-71
2021/04/01 06:14:42;;;;;;;12.83;9.53;;;10.80;29.60;;;;;;10408510;28;20234;-71
2021/04/01 06:19:48;;;;;;;14.93;8.93;;;10.90;30.20;;;;;;10408576;28;20228;-72
2021/04/01 06:24:52;;;;;;;12.53;8.77;;;11.00;30.10;;;;;;10409630;28;20755;-71
2021/04/01 06:30:20;;;;;;;12.97;8.70;;;11.10;29.80;;;;;;10416347;28;20213;-72
2021/04/01 06:35:29;;;;;;;15.70;10.17;;;11.10;30.30;;;;;;10410319;28;20221;-72
2021/04/01 06:40:36;;;;;;;12.00;8.87;;;11.30;30.50;;;;;;10405758;28;20232;-72
2021/04/01 06:45:41;;;;;;;9.63;7.87;;;11.40;32.40;;;;;;10404592;28;20226;-72
2021/04/01 06:50:47;;;;;;;15.20;8.80;;;11.60;31.40;;;;;;10406081;28;20348;-72
2021/04/01 06:56:03;;;;;;;9.33;7.70;;;11.80;31.80;;;;;;10410115;28;20218;-72
2021/04/01 07:01:11;;;;;;;10.43;7.60;;;12.00;32.60;;;;;;10412569;28;20648;-72
2021/04/01 07:06:25;;;;;;;9.97;7.40;;;12.30;32.10;;;;;;10419369;28;20229;-72
2021/04/01 07:11:32;;;;;;;9.80;7.07;;;12.60;32.70;;;;;;10409253;28;20229;-72
2021/04/01 07:16:53;;;;;;;11.30;6.90;;;12.90;31.70;;;;;;10411288;28;20269;-72
2021/04/01 07:49:02;;;;;;;10.40;6.20;;;14.80;31.90;;;;;;10406780;28;20577;-74
2021/04/01 07:54:07;;;;;;;13.77;7.60;;;15.20;31.30;;;;;;10404511;28;20230;-73
2021/04/01 07:59:27;;;;;;;9.47;6.60;;;15.50;31.60;;;;;;10406121;28;20336;-73
2021/04/01 08:04:31;;;;;;;12.47;6.93;;;15.90;30.70;;;;;;10414653;28;20229;-73
2021/04/01 08:09:39;;;;;;;12.87;7.13;;;16.30;30.70;;;;;;10416702;28;20236;-73
2021/04/01 08:14:46;;;;;;;9.33;6.47;;;16.70;30.10;;;;;;10406287;28;20245;-73
2021/04/01 08:19:52;;;;;;;12.83;7.00;;;17.10;30.20;;;;;;10411190;28;20252;-73
2021/04/01 08:25:19;;;;;;;10.13;6.53;;;17.40;29.60;;;;;;10412063;28;20235;-73
2021/04/01 08:36:24;;;;;;;9.70;6.97;;;18.00;29.30;;;;;;10408305;28;20244;-73
2021/04/01 08:42:18;;;;;;;11.27;6.90;;;18.30;29.10;;;;;;10417149;28;20639;-74
2021/04/01 08:47:59;;;;;;;8.93;6.50;;;18.50;29.00;;;;;;10398741;28;20241;-73
2021/04/01 08:53:24;;;;;;;9.60;6.93;;;18.80;28.80;;;;;;10404841;28;20305;-73
2021/04/01 08:58:40;;;;;;;9.43;7.20;;;19.20;29.00;;;;;;10410639;28;20224;-73
2021/04/01 09:03:46;;;;;;;9.57;6.80;;;19.50;28.50;;;;;;10408652;28;20636;-73
2021/04/01 09:08:55;;;;;;;8.47;6.43;;;19.80;28.20;;;;;;10410141;28;20229;-73
2021/04/01 09:13:57;;;;;;;10.07;6.50;;;20.10;28.10;;;;;;10405772;28;20755;-73
2021/04/01 09:19:28;;;;;;;9.57;6.60;;;20.40;28.30;;;;;;10411013;28;20229;-73
2021/04/01 09:24:34;;;;;;;9.23;6.87;;;20.70;28.20;;;;;;10410482;28;20237;-73
2021/04/01 09:29:41;;;;;;;7.47;6.13;;;20.90;27.70;;;;;;10406978;28;20288;-73
2021/04/01 09:34:48;;;;;;;9.63;6.43;;;21.10;26.90;;;;;;10405122;28;20244;-73
2021/04/01 09:39:53;;;;;;;12.07;6.67;;;21.30;26.30;;;;;;10406512;28;20762;-73
2021/04/01 09:44:57;;;;;;;10.03;7.37;;;21.50;27.10;;;;;;10408105;28;20748;-73
2021/04/01 09:50:06;;;;;;;8.97;6.20;;;21.70;26.90;;;;;;10397719;28;20238;-73
2021/04/01 09:55:14;;;;;;;7.90;6.37;;;21.90;26.60;;;;;;10409468;28;20269;-73
2021/04/01 10:00:28;;;;;;;7.97;6.40;;;22.20;26.80;;;;;;10395076;28;20225;-73
2021/04/01 10:05:52;;;;;;;10.57;6.60;;;22.40;26.60;;;;;;10405437;28;20244;-73
2021/04/01 10:10:55;;;;;;;7.57;5.97;;;22.60;26.40;;;;;;10402613;28;20232;-73
2021/04/01 10:15:59;;;;;;;9.60;5.73;;;22.80;25.60;;;;;;10406552;28;20228;-73
2021/04/01 10:21:04;;;;;;;7.23;5.77;;;23.00;25.90;;;;;;10403142;28;20214;-73
2021/04/01 10:26:08;;;;;;;8.90;5.87;;;23.20;25.00;;;;;;10403842;28;20309;-74
2021/04/01 10:31:13;;;;;;;7.50;5.67;;;23.40;25.50;;;;;;10403844;28;20237;-73
2021/04/01 10:36:18;;;;;;;7.37;4.80;;;23.70;24.70;;;;;;10401040;28;20236;-73
2021/04/01 10:41:21;;;;;;;8.03;5.17;;;23.90;24.20;;;;;;10396294;28;20233;-73
2021/04/01 10:46:23;;;;;;;6.97;5.23;;;24.10;24.20;;;;;;10399418;28;20225;-73
2021/04/01 10:51:29;;;;;;;5.10;3.80;;;24.40;24.10;;;;;;10405634;28;20647;-73
2021/04/01 10:56:54;;;;;;;6.00;4.30;;;24.50;22.90;;;;;;10401706;28;20734;-73
2021/04/01 11:01:57;;;;;;;7.13;3.97;;;24.60;22.90;;;;;;10401701;28;20320;-73
2021/04/01 11:07:03;;;;;;;6.37;4.10;;;24.70;23.20;;;;;;10397709;28;20694;-73
2021/04/01 11:12:16;;;;;;;4.63;3.63;;;24.90;21.60;;;;;;10395410;28;20229;-73
2021/04/01 11:17:21;;;;;;;7.60;4.07;;;25.00;20.80;;;;;;10403124;28;20226;-72
2021/04/01 11:22:25;;;;;;;5.73;3.50;;;25.10;20.90;;;;;;10400030;28;20233;-73
2021/04/01 11:27:27;;;;;;;6.10;3.87;;;25.10;21.30;;;;;;10398125;28;20226;-73
2021/04/01 11:32:31;;;;;;;3.93;3.27;;;25.10;21.60;;;;;;10401914;28;20237;-73
2021/04/01 11:37:36;;;;;;;4.17;3.40;;;25.10;21.00;;;;;;10399423;28;20225;-73
2021/04/01 11:42:38;;;;;;;4.90;4.00;;;25.20;21.10;;;;;;10402051;28;20594;-73
2021/04/01 11:47:40;;;;;;;4.17;3.53;;;25.30;20.90;;;;;;10402576;28;20252;-72
2021/04/01 11:52:43;;;;;;;5.13;3.50;;;25.30;20.70;;;;;;10400066;28;20222;-73
2021/04/01 11:57:46;;;;;;;5.93;4.20;;;25.40;19.70;;;;;;10405198;28;20581;-73
2021/04/01 12:02:55;;;;;;;5.73;3.77;;;25.40;19.50;;;;;;10410794;28;20235;-73
2021/04/01 12:08:00;;;;;;;4.53;3.50;;;25.40;19.60;;;;;;10398874;28;20225;-73
2021/04/01 12:13:02;;;;;;;4.10;3.70;;;25.30;19.20;;;;;;10407919;28;20251;-73
2021/04/01 12:18:06;;;;;;;3.93;2.83;;;25.30;19.40;;;;;;10411155;28;20455;-73
2021/04/01 12:23:10;;;;;;;5.23;3.77;;;25.30;19.40;;;;;;10406517;28;20229;-73
2021/04/01 12:28:18;;;;;;;5.30;4.30;;;25.40;18.80;;;;;;10406488;28;20225;-73
2021/04/01 12:33:22;;;;;;;6.80;4.10;;;25.40;18.70;;;;;;10408540;28;20233;-73
2021/04/01 12:38:31;;;;;;;6.07;4.07;;;25.50;19.30;;;;;;10405435;28;20225;-72
2021/04/01 12:43:34;;;;;;;4.90;3.90;;;25.50;18.50;;;;;;10408546;28;20238;-74
2021/04/01 12:48:38;;;;;;;4.17;3.70;;;25.60;18.80;;;;;;10410909;28;20237;-73
2021/04/01 12:53:41;;;;;;;5.10;3.80;;;25.70;18.90;;;;;;10403933;28;20271;-73
2021/04/01 12:58:46;;;;;;;5.53;4.13;;;25.80;18.90;;;;;;10402812;28;20244;-73
2021/04/01 13:03:48;;;;;;;5.03;3.50;;;25.90;19.50;;;;;;10405735;28;20252;-73
2021/04/01 13:08:55;;;;;;;5.67;3.43;;;25.90;18.60;;;;;;10406105;28;20604;-71
2021/04/01 13:13:57;;;;;;;5.73;3.60;;;25.80;18.40;;;;;;10399113;28;20733;-74
2021/04/01 13:18:59;;;;;;;5.50;4.13;;;25.80;19.00;;;;;;10404747;28;20233;-74
2021/04/01 13:24:10;;;;;;;6.80;4.07;;;25.80;18.50;;;;;;10405126;28;20321;-72
2021/04/01 13:29:13;;;;;;;5.17;4.07;;;25.70;18.10;;;;;;10409063;28;20727;-71
2021/04/01 13:34:20;;;;;;;6.17;4.37;;;25.80;18.90;;;;;;10407088;28;20229;-71
2021/04/01 13:39:25;;;;;;;6.80;4.23;;;25.80;18.90;;;;;;10408794;28;20947;-74
2021/04/01 13:44:33;;;;;;;6.63;4.90;;;25.80;18.50;;;;;;10405998;28;20237;-71
2021/04/01 13:49:37;;;;;;;6.67;4.97;;;25.90;17.90;;;;;;10406979;28;20705;-74
2021/04/01 13:54:52;;;;;;;5.17;4.70;;;25.80;18.00;;;;;;10407903;28;20234;-74
2021/04/01 14:00:06;;;;;;;7.10;5.07;;;25.70;18.00;;;;;;10403496;28;20229;-76
2021/04/01 14:10:32;;;;;;;6.23;4.80;;;25.60;18.10;;;;;;10397585;28;20230;-73
2021/04/01 14:15:35;;;;;;;8.27;5.10;;;25.70;18.00;;;;;;10405863;28;20585;-75
2021/04/01 14:20:37;;;;;;;7.80;5.33;;;25.70;18.10;;;;;;10400277;28;20655;-71
2021/04/01 14:25:44;;;;;;;4.80;3.87;;;25.80;17.90;;;;;;10400339;28;20237;-73
2021/04/01 14:30:46;;;;;;;6.60;4.93;;;25.80;17.50;;;;;;10405762;28;20244;-71
2021/04/01 14:35:49;;;;;;;6.93;5.53;;;25.90;17.80;;;;;;10394559;28;20236;-73
2021/04/01 14:40:56;;;;;;;5.70;5.13;;;26.00;17.40;;;;;;10394448;28;20232;-73
2021/04/01 14:45:58;;;;;;;8.23;5.43;;;26.10;17.60;;;;;;10401631;28;20245;-72
2021/04/01 14:51:01;;;;;;;8.77;5.43;;;26.00;17.60;;;;;;10406448;28;20225;-73
2021/04/01 14:56:06;;;;;;;6.67;5.43;;;26.00;18.00;;;;;;10404002;28;20230;-73
2021/04/01 15:01:09;;;;;;;5.87;5.37;;;26.00;18.10;;;;;;10404215;28;20222;-73
2021/04/01 15:06:12;;;;;;;6.37;5.23;;;25.80;18.10;;;;;;10400953;28;20244;-73
2021/04/01 15:11:15;;;;;;;5.60;4.67;;;25.70;18.00;;;;;;10399513;28;20232;-72
2021/04/01 15:16:20;;;;;;;5.17;3.60;;;25.40;18.30;;;;;;10396058;28;20226;-70
2021/04/01 15:21:22;;;;;;;5.17;3.47;;;25.20;18.60;;;;;;10398897;28;20252;-75
2021/04/01 15:26:26;;;;;;;3.73;3.40;;;24.90;19.30;;;;;;10406593;28;20237;-75
2021/04/01 15:31:31;;;;;;;3.73;3.43;;;24.80;19.20;;;;;;10401247;28;20317;-71
2021/04/01 15:36:33;;;;;;;5.47;3.10;;;24.70;19.00;;;;;;10401428;28;20233;-71
2021/04/01 15:41:38;;;;;;;3.33;2.80;;;24.70;19.00;;;;;;10401262;28;20234;-71
2021/04/01 15:46:40;;;;;;;3.93;3.40;;;24.60;19.30;;;;;;10406139;28;20271;-71
2021/04/01 15:51:43;;;;;;;4.60;3.80;;;24.60;19.20;;;;;;10403836;28;20312;-71
2021/04/01 15:56:46;;;;;;;5.77;4.30;;;24.50;19.00;;;;;;10391505;28;20243;-71
2021/04/01 16:01:48;;;;;;;5.50;3.90;;;24.30;19.20;;;;;;10401115;28;20230;-71
2021/04/01 16:06:50;;;;;;;6.10;3.93;;;24.10;19.20;;;;;;10398678;28;20268;-71
2021/04/01 16:11:53;;;;;;;5.17;4.10;;;23.90;19.30;;;;;;10400314;28;20229;-71
2021/04/01 16:16:55;;;;;;;4.17;3.70;;;23.80;19.60;;;;;;10401798;28;20233;-71
2021/04/01 16:21:58;;;;;;;4.17;3.77;;;23.60;19.70;;;;;;10401805;28;20256;-71
2021/04/01 16:27:01;;;;;;;4.33;3.13;;;23.50;20.20;;;;;;10400760;28;20233;-71
2021/04/01 16:32:04;;;;;;;4.60;3.53;;;23.30;20.50;;;;;;10404391;28;20225;-71
2021/04/01 16:37:06;;;;;;;3.67;3.07;;;23.20;20.70;;;;;;10452634;22;20216;-71
2021/04/01 16:42:12;;;;;;;7.03;3.53;;;23.00;20.90;;;;;;10544398;27;20247;-71
2021/04/01 16:47:14;;;;;;;4.70;3.20;;;22.90;21.20;;;;;;10536284;27;20228;-71
2021/04/01 16:52:18;;;;;;;8.30;3.50;;;22.80;21.10;;;;;;10510491;28;20590;-67
2021/04/01 16:57:23;;;;;;;4.80;3.20;;;22.70;21.30;;;;;;10522847;28;20877;-68
2021/04/01 17:02:25;;;;;;;5.30;3.30;;;22.60;21.50;;;;;;10516804;28;20229;-68
2021/04/01 17:07:30;;;;;;;6.10;3.53;;;22.60;21.40;;;;;;10521791;28;20726;-68
2021/04/01 17:12:34;;;;;;;5.73;3.53;;;22.60;21.50;;;;;;10514384;28;20232;-68
2021/04/01 17:17:40;;;;;;;6.33;4.60;;;22.60;21.70;;;;;;10525147;28;20227;-68
2021/04/01 17:22:42;;;;;;;6.67;4.33;;;22.60;21.70;;;;;;10508755;28;20224;-71
2021/04/01 17:27:46;;;;;;;5.90;4.27;;;22.70;21.80;;;;;;10508501;28;20723;-71
2021/04/01 17:32:48;;;;;;;3.97;3.10;;;22.70;21.90;;;;;;10513271;28;20231;-72
2021/04/01 17:37:50;;;;;;;6.77;3.40;;;22.70;21.90;;;;;;10516318;28;20319;-68
2021/04/01 17:42:53;;;;;;;5.00;3.27;;;22.70;22.00;;;;;;10514977;28;20219;-68
2021/04/01 17:47:55;;;;;;;5.53;3.70;;;22.60;22.10;;;;;;10518685;28;20592;-68
2021/04/01 17:52:58;;;;;;;5.63;4.23;;;22.60;22.00;;;;;;10512041;28;20231;-68
2021/04/01 17:58:02;;;;;;;5.97;4.10;;;22.50;22.10;;;;;;10512253;28;20277;-68
2021/04/01 18:03:08;;;;;;;4.93;3.70;;;22.30;22.20;;;;;;10500809;28;20605;-71
2021/04/01 18:24:13;;;;;;;4.83;4.20;;;21.70;22.50;;;;;;10508451;28;20224;-68
2021/04/01 18:29:23;;;;;;;6.83;4.97;;;21.50;22.60;;;;;;10520438;28;20315;-68
2021/04/01 18:34:31;;;;;;;6.97;4.90;;;21.40;22.80;;;;;;10510718;28;20223;-68
2021/04/01 18:39:37;;;;;;;6.50;4.70;;;21.30;22.80;;;;;;10488392;28;20779;-72
2021/04/01 18:44:42;;;;;;;10.20;7.60;;;21.10;22.80;;;;;;10500952;28;20305;-72
2021/04/01 18:49:48;;;;;;;7.97;6.57;;;20.90;23.10;;;;;;10518943;28;20224;-72
2021/04/01 18:55:03;;;;;;;9.40;6.20;;;20.80;23.30;;;;;;10524850;28;20247;-72
2021/04/01 19:00:11;;;;;;;10.17;6.80;;;20.60;23.40;;;;;;10512414;28;20230;-72
2021/04/01 19:05:16;;;;;;;12.53;8.50;;;20.30;24.40;;;;;;10510539;28;20568;-72
2021/04/01 19:10:22;;;;;;;9.00;7.27;;;20.00;24.10;;;;;;10512265;28;20598;-72
2021/04/01 19:26:14;;;;;;;8.97;6.17;;;19.20;25.00;;;;;;10409321;28;20220;-72
2021/04/01 19:31:17;;;;;;;9.57;5.83;;;19.00;24.90;;;;;;10506851;28;20817;-71
2021/04/01 19:36:20;;;;;;;10.90;6.50;;;18.80;25.50;;;;;;10495394;28;21058;-72
2021/04/01 19:41:25;;;;;;;9.53;5.70;;;18.80;25.80;;;;;;10500427;28;20223;-72
2021/04/01 19:46:29;;;;;;;9.80;6.03;;;18.70;25.60;;;;;;10494007;28;20594;-72
2021/04/01 19:51:31;;;;;;;9.17;5.57;;;18.70;25.80;;;;;;10503046;28;20231;-72
2021/04/01 19:56:35;;;;;;;5.73;5.10;;;18.70;25.60;;;;;;10502819;28;21200;-72
2021/04/01 20:01:38;;;;;;;9.60;5.63;;;18.70;25.60;;;;;;10518826;28;20231;-72
2021/04/01 20:06:40;;;;;;;5.70;4.97;;;18.70;25.80;;;;;;10496020;28;20254;-72
2021/04/01 20:11:43;;;;;;;7.03;6.10;;;18.70;25.50;;;;;;10512093;28;20234;-72
2021/04/01 20:16:48;;;;;;;8.10;5.67;;;18.70;25.70;;;;;;10492009;28;20817;-71
2021/04/01 20:21:51;;;;;;;8.83;5.40;;;18.70;25.90;;;;;;10533833;28;20590;-72
2021/04/01 20:26:53;;;;;;;6.97;5.47;;;18.70;25.60;;;;;;10515655;28;20265;-72
2021/04/01 20:31:56;;;;;;;10.00;6.03;;;18.70;25.50;;;;;;10524704;28;20240;-72
2021/04/01 20:36:58;;;;;;;9.83;6.67;;;18.60;25.60;;;;;;10522779;28;20236;-72
2021/04/01 20:42:00;;;;;;;10.70;6.07;;;18.50;25.50;;;;;;10514285;28;20219;-68
2021/04/01 20:47:04;;;;;;;9.47;6.07;;;18.40;25.50;;;;;;10513885;28;20220;-69
2021/04/01 20:52:07;;;;;;;6.93;4.90;;;18.40;25.80;;;;;;10533286;28;20236;-68
2021/04/01 20:57:10;;;;;;;7.23;5.43;;;18.30;25.60;;;;;;10509590;28;20231;-68
2021/04/01 21:02:13;;;;;;;10.10;5.27;;;18.20;25.60;;;;;;10495372;28;20225;-68
2021/04/01 21:07:15;;;;;;;6.53;4.83;;;18.10;25.90;;;;;;10497307;28;20234;-68
2021/04/01 21:12:17;;;;;;;4.50;4.10;;;18.10;25.70;;;;;;10502003;28;20220;-68
2021/04/01 21:17:20;;;;;;;6.53;3.70;;;18.00;25.70;;;;;;10506018;28;20220;-68
2021/04/01 21:22:22;;;;;;;4.17;3.60;;;17.80;26.00;;;;;;10495980;28;20219;-68
2021/04/01 21:27:25;;;;;;;3.97;3.47;;;17.80;26.00;;;;;;10495524;28;20227;-68
2021/04/01 21:32:30;;;;;;;4.20;3.77;;;17.60;26.00;;;;;;10481963;28;20700;-68
2021/04/01 21:37:32;;;;;;;5.43;4.07;;;17.60;26.40;;;;;;10483196;28;20536;-68
2021/04/01 21:42:34;;;;;;;4.47;3.07;;;17.60;26.40;;;;;;10485088;28;20278;-69
2021/04/01 21:47:37;;;;;;;3.40;2.97;;;17.50;26.30;;;;;;10480683;28;20236;-69
2021/04/01 21:52:40;;;;;;;5.07;3.43;;;17.40;26.50;;;;;;10484302;28;20297;-68
2021/04/01 21:57:43;;;;;;;3.37;3.07;;;17.30;26.60;;;;;;10477976;28;20602;-68
2021/04/01 22:02:46;;;;;;;4.30;2.93;;;17.30;26.70;;;;;;10484649;28;20236;-68
2021/04/01 22:07:50;;;;;;;3.83;3.50;;;17.20;26.90;;;;;;10484680;28;20231;-68
2021/04/01 22:12:53;;;;;;;5.80;3.27;;;17.20;27.00;;;;;;10496873;28;20237;-68
2021/04/01 22:17:56;;;;;;;4.60;3.57;;;17.10;26.90;;;;;;10474150;28;20230;-68
2021/04/01 22:22:59;;;;;;;3.83;3.30;;;17.00;27.00;;;;;;10511061;28;20266;-69
2021/04/01 22:28:02;;;;;;;6.00;3.47;;;16.90;26.90;;;;;;10494165;28;20588;-70
2021/04/01 22:33:06;;;;;;;4.40;3.60;;;16.80;27.10;;;;;;10499585;28;20229;-70
2021/04/01 22:38:10;;;;;;;6.23;4.10;;;16.70;27.50;;;;;;10504628;22;20225;-73
2021/04/01 22:43:15;;;;;;;7.53;3.97;;;16.60;27.50;;;;;;10484914;28;20610;-73
2021/04/01 22:48:20;;;;;;;5.67;4.10;;;16.60;27.80;;;;;;10475530;28;20231;-73
2021/04/01 22:53:22;;;;;;;5.50;3.93;;;16.60;27.80;;;;;;10448904;28;20311;-72
2021/04/01 22:58:27;;;;;;;6.83;3.70;;;16.60;27.50;;;;;;10448081;28;20233;-72
2021/04/01 23:03:30;;;;;;;4.83;3.30;;;16.50;27.70;;;;;;10449712;28;20224;-72
2021/04/01 23:08:32;;;;;;;4.77;3.50;;;16.50;27.80;;;;;;10451215;28;20251;-72
2021/04/01 23:13:35;;;;;;;4.50;3.70;;;16.40;27.50;;;;;;10450311;28;20232;-72
2021/04/01 23:18:38;;;;;;;5.97;3.80;;;16.40;27.80;;;;;;10449908;28;20244;-72
2021/04/01 23:23:40;;;;;;;5.63;4.20;;;16.30;27.80;;;;;;10449770;28;20245;-72
2021/04/01 23:28:42;;;;;;;8.13;4.67;;;16.30;27.60;;;;;;10449882;28;20644;-72
2021/04/01 23:33:45;;;;;;;6.27;4.00;;;16.20;27.50;;;;;;10449551;28;20239;-72
2021/04/01 23:38:47;;;;;;;5.17;4.50;;;16.10;27.60;;;;;;10449132;28;20228;-72
2021/04/01 23:43:49;;;;;;;7.30;4.80;;;16.00;27.60;;;;;;10449317;28;20700;-72
2021/04/01 23:48:53;;;;;;;5.13;4.53;;;16.00;27.60;;;;;;10449548;28;20235;-72
2021/04/01 23:53:55;;;;;;;8.87;4.13;;;15.90;27.80;;;;;;10452424;28;20599;-72
2021/04/01 23:58:57;;;;;;;6.77;5.13;;;15.90;27.80;;;;;;10458618;28;20658;-72
